Time;durP1;ratioP1;P1;durP2;ratioP2;P2;SDS_P1;SDS_P2;PMS_P1;PMS_P2;Temp;Humidity;BMP_temperature;BMP_pressure;BME280_temperature;BME280_humidity;BME280_pressure;Samples;Min_cycle;Max_cycle;Signal;HPM_P1;HPM_P2
2021/12/19 00:09:07;;;;;;;14.60;5.80;;;8.00;99.90;;;;;;5086603;28;20410;-89
2021/12/19 00:11:33;;;;;;;10.82;5.47;;;8.00;99.90;;;;;;5072037;28;20380;-88
2021/12/19 00:14:00;;;;;;;16.50;6.03;;;8.00;99.90;;;;;;5081550;28;20388;-89
2021/12/19 00:16:27;;;;;;;12.93;5.68;;;7.90;99.90;;;;;;5070886;28;20959;-86
2021/12/19 00:18:53;;;;;;;14.00;5.93;;;8.00;99.90;;;;;;5068857;28;20400;-86
2021/12/19 00:21:20;;;;;;;11.23;5.60;;;8.00;99.90;;;;;;5067071;28;20376;-88
2021/12/19 00:23:49;;;;;;;11.77;6.45;;;8.00;99.90;;;;;;5087516;28;20384;-91
2021/12/19 00:26:16;;;;;;;14.02;6.53;;;8.00;99.90;;;;;;5085918;28;20404;-87
2021/12/19 00:28:43;;;;;;;14.23;6.93;;;8.00;99.90;;;;;;5069575;28;20436;-88
2021/12/19 00:31:10;;;;;;;13.93;6.85;;;7.90;99.90;;;;;;5065686;28;20886;-88
2021/12/19 00:33:37;;;;;;;12.05;6.50;;;7.90;99.90;;;;;;5066112;28;20889;-89
2021/12/19 00:36:03;;;;;;;13.35;6.22;;;7.90;99.90;;;;;;5085102;28;20886;-88
2021/12/19 00:38:29;;;;;;;10.48;5.88;;;7.90;99.90;;;;;;5066228;28;20391;-91
2021/12/19 00:40:56;;;;;;;12.67;6.40;;;7.90;99.90;;;;;;5070047;28;20388;-86
2021/12/19 00:43:37;;;;;;;12.20;6.13;;;7.90;99.90;;;;;;5085810;28;20479;-89
2021/12/19 00:46:09;;;;;;;12.25;6.55;;;7.90;99.90;;;;;;5086245;28;20442;-90
2021/12/19 00:48:38;;;;;;;12.45;6.05;;;7.90;99.90;;;;;;5069818;28;20804;-90
2021/12/19 00:51:10;;;;;;;11.27;5.93;;;7.90;99.90;;;;;;5070920;28;20735;-87
2021/12/19 00:53:38;;;;;;;12.85;6.30;;;7.90;99.90;;;;;;5086666;28;20381;-86
2021/12/19 00:56:06;;;;;;;12.18;6.70;;;8.00;99.90;;;;;;5070209;28;20388;-88
2021/12/19 00:58:32;;;;;;;12.73;7.00;;;7.90;99.90;;;;;;5070548;28;20384;-90
2021/12/19 01:00:58;;;;;;;13.13;7.25;;;7.90;99.90;;;;;;5071217;28;20407;-89
2021/12/19 01:03:24;;;;;;;13.63;7.45;;;7.90;99.90;;;;;;5070159;28;20476;-89
2021/12/19 01:05:50;;;;;;;12.02;8.52;;;7.90;99.90;;;;;;5070346;28;20420;-89
2021/12/19 01:08:16;;;;;;;12.27;8.23;;;7.80;99.90;;;;;;5069829;28;20974;-89
2021/12/19 01:10:44;;;;;;;13.45;8.95;;;7.80;99.90;;;;;;5070449;28;20479;-85
2021/12/19 01:13:11;;;;;;;13.00;8.17;;;7.90;99.90;;;;;;5069087;28;20392;-85
2021/12/19 01:15:37;;;;;;;12.13;9.55;;;7.90;99.90;;;;;;5068666;28;20886;-89
2021/12/19 01:18:04;;;;;;;11.50;8.70;;;7.90;99.90;;;;;;5066536;28;20876;-89
2021/12/19 01:20:34;;;;;;;15.43;9.13;;;7.80;99.90;;;;;;5068347;28;20423;-90
2021/12/19 01:23:00;;;;;;;13.95;8.90;;;7.80;99.90;;;;;;5085813;28;20392;-86
2021/12/19 01:25:26;;;;;;;11.77;8.27;;;7.80;99.90;;;;;;5084650;28;20453;-89
2021/12/19 01:27:52;;;;;;;11.48;8.35;;;7.80;99.90;;;;;;5069050;28;20415;-89
2021/12/19 01:30:18;;;;;;;11.52;8.38;;;7.80;99.90;;;;;;5068358;28;20419;-91
2021/12/19 01:32:45;;;;;;;13.52;7.97;;;7.80;99.90;;;;;;5068999;28;20388;-88
2021/12/19 01:35:13;;;;;;;13.10;7.50;;;7.80;99.90;;;;;;5088246;28;20465;-89
2021/12/19 01:37:40;;;;;;;12.30;7.35;;;7.90;99.90;;;;;;5052198;28;20382;-88
2021/12/19 01:40:07;;;;;;;10.02;7.15;;;7.90;99.90;;;;;;5062989;28;20888;-90
2021/12/19 01:42:39;;;;;;;10.57;6.63;;;7.80;99.90;;;;;;5060387;28;20386;-89
2021/12/19 01:45:09;;;;;;;10.83;6.30;;;7.80;99.90;;;;;;5051687;28;20470;-89
2021/12/19 01:47:35;;;;;;;10.63;6.35;;;7.70;99.90;;;;;;5063698;28;20396;-91
2021/12/19 01:50:01;;;;;;;9.65;6.13;;;7.80;99.90;;;;;;5085578;28;20408;-90
2021/12/19 01:52:28;;;;;;;9.17;5.20;;;7.80;99.90;;;;;;5069752;28;20385;-90
2021/12/19 01:54:55;;;;;;;10.57;5.60;;;7.90;99.90;;;;;;5090183;28;20408;-86
2021/12/19 01:57:24;;;;;;;12.38;5.47;;;7.90;99.90;;;;;;5082485;28;20902;-87
2021/12/19 01:59:50;;;;;;;10.00;4.60;;;7.90;99.90;;;;;;5076611;28;20401;-89
2021/12/19 02:02:16;;;;;;;9.35;4.50;;;7.90;99.90;;;;;;5074621;28;20372;-88
2021/12/19 02:04:43;;;;;;;8.47;4.20;;;7.80;99.90;;;;;;5075349;28;20395;-89
2021/12/19 02:07:10;;;;;;;9.90;4.23;;;7.80;99.90;;;;;;5063603;28;20393;-88
2021/12/19 02:09:36;;;;;;;8.60;4.38;;;7.70;99.90;;;;;;5067816;28;20901;-90
2021/12/19 02:12:03;;;;;;;6.85;3.95;;;7.80;99.90;;;;;;5072554;28;20389;-90
2021/12/19 02:14:29;;;;;;;9.27;4.20;;;7.70;99.90;;;;;;5072925;28;20483;-87
2021/12/19 02:16:55;;;;;;;8.85;3.47;;;7.80;99.90;;;;;;5070588;28;20522;-87
2021/12/19 02:19:20;;;;;;;7.57;3.70;;;7.80;99.90;;;;;;5059604;28;20401;-86
2021/12/19 02:21:46;;;;;;;8.80;3.97;;;7.80;99.90;;;;;;5054320;28;20860;-88
2021/12/19 02:24:12;;;;;;;6.83;3.50;;;7.80;99.90;;;;;;5054230;28;20447;-89
2021/12/19 02:26:40;;;;;;;8.77;3.67;;;7.80;99.90;;;;;;5064028;28;20400;-90
2021/12/19 02:29:06;;;;;;;8.48;3.42;;;7.80;99.90;;;;;;5073431;28;20754;-87
2021/12/19 02:31:32;;;;;;;7.13;3.50;;;7.80;99.90;;;;;;5072784;28;20407;-92
2021/12/19 02:37:08;;;;;;;7.35;3.75;;;7.80;99.90;;;;;;5071088;28;20396;-89
2021/12/19 02:48:10;;;;;;;6.97;3.60;;;7.80;99.90;;;;;;5088550;28;20410;-87
2021/12/19 02:50:47;;;;;;;7.15;3.33;;;7.80;99.90;;;;;;5072865;28;20457;-90
2021/12/19 02:53:13;;;;;;;6.22;3.00;;;7.90;99.90;;;;;;5073771;28;20384;-89
2021/12/19 02:55:40;;;;;;;7.13;3.10;;;7.90;99.90;;;;;;5066256;28;20386;-90
2021/12/19 02:58:06;;;;;;;6.10;3.13;;;7.90;99.90;;;;;;5066942;28;20919;-89
2021/12/19 03:00:31;;;;;;;6.80;3.08;;;7.90;99.90;;;;;;5073166;28;20376;-90
2021/12/19 03:02:57;;;;;;;5.90;2.90;;;7.90;99.90;;;;;;5063700;28;20410;-90
2021/12/19 03:05:24;;;;;;;6.15;3.22;;;7.90;99.90;;;;;;5069568;28;20405;-91
2021/12/19 03:07:51;;;;;;;7.03;2.95;;;7.90;99.90;;;;;;5053370;28;20378;-86
2021/12/19 03:13:11;;;;;;;7.07;3.38;;;7.70;99.90;;;;;;5091482;28;20380;-90
2021/12/19 03:18:23;;;;;;;6.18;3.28;;;7.70;99.90;;;;;;5090175;28;20472;-87
2021/12/19 03:20:49;;;;;;;6.00;3.03;;;7.70;99.90;;;;;;5072711;28;20388;-86
2021/12/19 03:23:15;;;;;;;6.05;3.30;;;7.80;99.90;;;;;;5071888;28;20526;-90
2021/12/19 03:25:41;;;;;;;6.83;3.10;;;7.80;99.90;;;;;;5072403;28;20905;-89
2021/12/19 03:28:09;;;;;;;5.40;2.83;;;7.80;99.90;;;;;;5072219;28;20878;-87
2021/12/19 03:30:36;;;;;;;5.32;2.70;;;7.80;99.90;;;;;;5072545;28;20372;-89
2021/12/19 03:33:02;;;;;;;5.72;3.10;;;7.80;99.90;;;;;;5071528;28;20404;-89
2021/12/19 03:35:29;;;;;;;7.07;3.15;;;7.80;99.90;;;;;;5061399;28;20791;-90
2021/12/19 03:37:56;;;;;;;5.57;3.13;;;7.80;99.90;;;;;;5052837;28;20387;-88
2021/12/19 03:40:24;;;;;;;6.13;3.10;;;7.80;99.90;;;;;;5058409;28;20387;-90
2021/12/19 03:42:52;;;;;;;5.35;3.20;;;7.80;99.90;;;;;;5093680;28;20384;-89
2021/12/19 03:45:21;;;;;;;6.60;3.22;;;7.90;99.90;;;;;;5072437;28;20392;-86
2021/12/19 03:47:48;;;;;;;6.93;2.83;;;7.80;99.90;;;;;;5057027;28;20402;-89
2021/12/19 03:50:19;;;;;;;5.68;3.30;;;7.80;99.90;;;;;;5051828;28;20452;-90
2021/12/19 03:52:45;;;;;;;6.28;3.20;;;7.90;99.90;;;;;;5052298;28;21471;-91
2021/12/19 03:55:11;;;;;;;4.95;3.20;;;7.80;99.90;;;;;;5052905;28;20923;-91
2021/12/19 03:57:37;;;;;;;4.80;3.15;;;7.80;99.90;;;;;;5062918;28;20439;-91
2021/12/19 04:00:09;;;;;;;6.07;3.60;;;7.90;99.90;;;;;;5072303;28;20434;-88
2021/12/19 04:02:35;;;;;;;5.03;2.93;;;7.70;99.90;;;;;;5070637;28;20422;-86
2021/12/19 04:05:01;;;;;;;6.90;3.30;;;7.90;99.90;;;;;;5089822;28;20384;-87
2021/12/19 04:07:28;;;;;;;6.13;3.47;;;7.80;99.90;;;;;;5071551;28;20817;-85
2021/12/19 04:09:54;;;;;;;5.22;3.50;;;7.70;99.90;;;;;;5055132;28;20406;-88
2021/12/19 04:12:23;;;;;;;6.95;3.97;;;7.70;99.90;;;;;;5052376;28;20404;-87
2021/12/19 04:14:48;;;;;;;6.32;3.33;;;7.80;99.90;;;;;;5054013;28;20382;-89
2021/12/19 04:17:14;;;;;;;8.85;4.20;;;7.80;99.90;;;;;;5071267;28;20419;-85
2021/12/19 04:19:39;;;;;;;7.78;4.10;;;7.80;99.90;;;;;;5072108;28;20384;-85
2021/12/19 04:22:05;;;;;;;8.80;4.40;;;7.80;99.90;;;;;;5088439;28;20881;-87
2021/12/19 04:24:32;;;;;;;7.05;4.45;;;7.90;99.90;;;;;;5089655;28;20394;-89
2021/12/19 04:26:58;;;;;;;6.80;5.00;;;7.90;99.90;;;;;;5071575;28;20810;-90
2021/12/19 04:29:25;;;;;;;9.75;5.30;;;7.90;99.90;;;;;;5068075;28;20408;-88
2021/12/19 04:31:55;;;;;;;7.60;4.97;;;7.90;99.90;;;;;;5086499;28;20459;-89
2021/12/19 04:34:22;;;;;;;8.73;5.40;;;7.90;99.90;;;;;;5071170;28;20483;-87
2021/12/19 04:36:52;;;;;;;10.13;5.63;;;7.90;99.90;;;;;;5086780;28;20380;-88
2021/12/19 04:42:27;;;;;;;10.27;6.10;;;7.90;99.90;;;;;;5089062;28;20376;-89
2021/12/19 04:50:51;;;;;;;12.40;5.85;;;7.90;99.90;;;;;;5087035;28;20381;-90
2021/12/19 04:59:38;;;;;;;12.97;6.27;;;7.90;99.90;;;;;;5088891;28;20386;-87
2021/12/19 05:02:05;;;;;;;11.83;6.47;;;7.90;99.90;;;;;;5075101;28;20808;-86
2021/12/19 05:04:12;;;;;;;14.97;5.93;;;7.80;99.90;;;;;;5088489;28;20407;-90
2021/12/19 05:14:30;;;;;;;13.07;6.15;;;7.80;99.90;;;;;;5088306;28;20432;-88
2021/12/19 05:17:02;;;;;;;12.97;6.03;;;7.80;99.90;;;;;;5071107;28;20955;-89
2021/12/19 05:19:34;;;;;;;12.18;6.13;;;7.80;99.90;;;;;;5088130;28;20472;-90
2021/12/19 05:22:02;;;;;;;11.57;5.53;;;7.80;99.90;;;;;;5071784;28;20402;-90
2021/12/19 05:27:03;;;;;;;13.85;6.13;;;7.80;99.90;;;;;;5088123;28;20882;-86
2021/12/19 05:29:31;;;;;;;12.25;6.18;;;7.80;99.90;;;;;;5091776;28;20766;-90
2021/12/19 05:31:56;;;;;;;11.30;6.18;;;7.70;99.90;;;;;;5092427;28;20376;-87
2021/12/19 05:34:22;;;;;;;15.00;6.00;;;7.80;99.90;;;;;;5074600;28;20901;-84
2021/12/19 05:45:21;;;;;;;14.88;6.20;;;7.80;99.90;;;;;;5095261;28;20418;-87
2021/12/19 05:47:50;;;;;;;13.45;6.20;;;7.70;99.90;;;;;;5094942;28;20384;-89
2021/12/19 05:50:19;;;;;;;13.75;5.90;;;7.70;99.90;;;;;;5074327;28;20412;-88
2021/12/19 05:52:47;;;;;;;12.53;5.97;;;7.60;99.90;;;;;;5069798;28;20374;-89
2021/12/19 05:55:14;;;;;;;11.70;6.10;;;7.60;99.90;;;;;;5074346;28;20433;-92
2021/12/19 05:57:39;;;;;;;12.88;6.28;;;7.60;99.90;;;;;;5092739;28;20383;-89
2021/12/19 06:00:09;;;;;;;13.10;6.43;;;7.70;99.90;;;;;;5091864;28;20380;-86
2021/12/19 06:02:35;;;;;;;13.17;5.80;;;7.70;99.90;;;;;;5089708;28;20436;-90
2021/12/19 06:05:01;;;;;;;12.40;5.95;;;7.70;99.90;;;;;;5073735;28;20377;-92
2021/12/19 06:07:27;;;;;;;11.65;5.80;;;7.60;99.90;;;;;;5072781;28;20524;-88
2021/12/19 06:09:52;;;;;;;10.07;5.72;;;7.70;99.90;;;;;;5073576;28;20608;-87
2021/12/19 06:12:18;;;;;;;11.82;5.05;;;7.70;99.90;;;;;;5072647;28;20723;-89
2021/12/19 06:14:44;;;;;;;10.18;4.78;;;7.60;99.90;;;;;;5074008;28;20898;-90
2021/12/19 06:17:09;;;;;;;13.20;5.50;;;7.80;99.90;;;;;;5091740;28;20525;-89
2021/12/19 06:19:36;;;;;;;13.55;5.15;;;7.60;99.90;;;;;;5092037;28;20388;-88
2021/12/19 06:22:04;;;;;;;13.63;5.35;;;7.60;99.90;;;;;;5072726;28;20393;-89
2021/12/19 06:24:31;;;;;;;11.20;5.20;;;7.70;99.90;;;;;;5087180;28;20598;-86
2021/12/19 06:26:58;;;;;;;11.65;5.38;;;7.70;99.90;;;;;;5073080;28;20739;-89
2021/12/19 06:29:24;;;;;;;12.18;5.78;;;7.60;99.90;;;;;;5074447;28;20400;-90
2021/12/19 06:31:50;;;;;;;10.35;4.85;;;7.60;99.90;;;;;;5068985;28;20400;-91
2021/12/19 06:34:16;;;;;;;12.02;5.47;;;7.60;99.90;;;;;;5074961;28;20392;-90
2021/12/19 06:36:44;;;;;;;11.85;6.10;;;7.60;99.90;;;;;;5071809;28;20905;-88
2021/12/19 06:39:09;;;;;;;11.82;5.65;;;7.60;99.90;;;;;;5092031;28;20372;-90
2021/12/19 06:41:38;;;;;;;10.63;5.87;;;7.50;99.90;;;;;;5073581;28;20959;-89
2021/12/19 06:44:05;;;;;;;15.32;7.13;;;7.60;99.90;;;;;;5073882;28;20758;-91
2021/12/19 06:46:31;;;;;;;14.00;6.57;;;7.50;99.90;;;;;;5073066;28;20386;-90
2021/12/19 06:48:57;;;;;;;14.82;6.78;;;7.50;99.90;;;;;;5073479;28;20397;-87
2021/12/19 06:51:23;;;;;;;9.30;5.03;;;7.50;99.90;;;;;;5073005;28;20472;-90
2021/12/19 06:53:49;;;;;;;10.90;4.95;;;7.50;99.90;;;;;;5066086;28;20895;-90
2021/12/19 06:56:15;;;;;;;6.88;3.72;;;7.40;99.90;;;;;;5072757;28;20457;-90
2021/12/19 06:58:42;;;;;;;8.15;3.40;;;7.50;99.90;;;;;;5058401;28;20390;-90
2021/12/19 07:01:07;;;;;;;4.57;2.80;;;7.50;99.90;;;;;;5054010;28;20421;-88
2021/12/19 07:03:33;;;;;;;6.00;3.00;;;7.50;99.90;;;;;;5065970;28;20443;-90
2021/12/19 07:05:59;;;;;;;6.63;2.70;;;7.40;99.90;;;;;;5072907;28;20369;-88
2021/12/19 07:08:25;;;;;;;6.93;2.93;;;7.40;99.90;;;;;;5072374;28;20383;-91
2021/12/19 07:10:51;;;;;;;5.90;2.58;;;7.30;99.90;;;;;;5071535;28;20438;-88
2021/12/19 07:13:20;;;;;;;6.57;2.70;;;7.40;99.90;;;;;;5090957;28;20384;-91
2021/12/19 07:15:46;;;;;;;4.45;2.15;;;7.40;99.90;;;;;;5075168;28;20518;-87
2021/12/19 07:18:12;;;;;;;5.13;2.25;;;7.40;99.90;;;;;;5091717;28;20384;-87
2021/12/19 07:20:42;;;;;;;4.07;1.80;;;7.40;99.90;;;;;;5058994;28;20412;-89
2021/12/19 07:23:14;;;;;;;3.97;1.60;;;7.40;99.90;;;;;;5053476;28;20386;-87
2021/12/19 07:25:40;;;;;;;3.65;1.83;;;7.30;99.90;;;;;;5059260;28;20416;-85
2021/12/19 07:28:07;;;;;;;4.77;1.80;;;7.40;99.90;;;;;;5090779;28;20775;-89
2021/12/19 07:30:36;;;;;;;3.53;1.37;;;7.40;99.90;;;;;;5059757;28;20448;-89
2021/12/19 07:33:05;;;;;;;3.00;1.40;;;7.40;99.90;;;;;;5053027;28;20820;-92
2021/12/19 07:35:34;;;;;;;3.13;1.40;;;7.40;99.90;;;;;;5090888;28;20392;-90
2021/12/19 07:38:00;;;;;;;3.30;1.58;;;7.40;99.90;;;;;;5073018;28;20442;-90
2021/12/19 07:40:28;;;;;;;3.63;1.42;;;7.40;99.90;;;;;;5069127;28;20498;-92
2021/12/19 07:42:58;;;;;;;3.92;1.77;;;7.30;99.90;;;;;;5074750;28;20431;-90
2021/12/19 07:45:24;;;;;;;3.22;1.67;;;7.30;99.90;;;;;;5053186;28;20417;-89
2021/12/19 07:47:58;;;;;;;3.80;1.90;;;7.30;99.90;;;;;;5074292;28;20926;-90
2021/12/19 07:50:25;;;;;;;5.57;2.20;;;7.30;99.90;;;;;;5078683;28;20405;-90
2021/12/19 07:52:53;;;;;;;4.95;1.80;;;7.30;99.90;;;;;;5071833;28;20381;-91
2021/12/19 07:55:20;;;;;;;3.22;2.05;;;7.20;99.90;;;;;;5071242;28;20388;-89
2021/12/19 07:57:46;;;;;;;3.03;2.03;;;7.30;99.90;;;;;;5071087;28;20391;-89
2021/12/19 08:00:14;;;;;;;4.63;2.00;;;7.20;99.90;;;;;;5069813;28;20376;-89
2021/12/19 08:02:41;;;;;;;5.32;1.80;;;7.20;99.90;;;;;;5070883;28;20401;-90
2021/12/19 08:05:08;;;;;;;3.23;1.47;;;7.30;99.90;;;;;;5089889;28;20415;-91
2021/12/19 08:07:34;;;;;;;2.67;1.65;;;7.30;99.90;;;;;;5071631;28;20897;-91
2021/12/19 08:10:13;;;;;;;4.80;1.52;;;7.30;99.90;;;;;;5059795;28;20501;-88
2021/12/19 08:12:39;;;;;;;2.65;1.38;;;7.20;99.90;;;;;;5072033;28;20392;-90
2021/12/19 08:15:06;;;;;;;4.33;1.80;;;7.20;99.90;;;;;;5071339;28;20550;-88
2021/12/19 08:17:32;;;;;;;3.53;1.75;;;7.20;99.90;;;;;;5059230;28;20431;-91
2021/12/19 08:19:58;;;;;;;4.50;1.60;;;7.10;99.90;;;;;;5072350;28;20377;-90
2021/12/19 08:22:25;;;;;;;4.93;1.70;;;7.20;99.90;;;;;;5071866;28;20377;-89
2021/12/19 08:24:52;;;;;;;4.88;1.92;;;7.20;99.90;;;;;;5089116;28;20874;-87
2021/12/19 08:27:17;;;;;;;5.70;1.77;;;7.20;99.90;;;;;;5071747;28;20385;-87
2021/12/19 08:29:43;;;;;;;3.70;1.73;;;7.10;99.90;;;;;;5071132;28;20442;-88
2021/12/19 08:32:09;;;;;;;4.47;2.15;;;7.10;99.90;;;;;;5071003;28;20369;-86
2021/12/19 08:34:35;;;;;;;4.57;2.20;;;7.20;99.90;;;;;;5071336;28;20438;-88
2021/12/19 08:37:02;;;;;;;4.15;1.90;;;7.20;99.90;;;;;;5070047;28;20379;-89
2021/12/19 08:39:31;;;;;;;3.72;2.20;;;7.20;99.90;;;;;;5087973;28;20402;-89
2021/12/19 08:41:57;;;;;;;3.67;2.20;;;7.20;99.90;;;;;;5070765;28;20397;-88
2021/12/19 08:44:22;;;;;;;4.85;2.33;;;7.20;99.90;;;;;;5092123;28;20387;-87
2021/12/19 08:46:48;;;;;;;3.67;2.20;;;7.20;99.90;;;;;;5074456;28;20391;-86
2021/12/19 08:49:14;;;;;;;4.33;2.13;;;7.20;99.90;;;;;;5084046;28;20816;-85
2021/12/19 08:51:40;;;;;;;5.22;2.20;;;7.20;99.90;;;;;;5071354;28;20501;-86
2021/12/19 08:54:07;;;;;;;3.00;2.28;;;7.20;99.90;;;;;;5089662;28;20414;-88
2021/12/19 08:56:33;;;;;;;6.10;2.50;;;7.10;99.90;;;;;;5090110;28;20463;-86
2021/12/19 08:59:00;;;;;;;4.65;2.30;;;7.00;99.90;;;;;;5094411;28;20378;-88
2021/12/19 09:01:26;;;;;;;6.60;2.40;;;7.00;99.90;;;;;;5093807;28;20406;-86
2021/12/19 09:03:52;;;;;;;3.85;2.38;;;7.10;99.90;;;;;;5072442;28;20384;-86
2021/12/19 09:06:17;;;;;;;7.90;2.45;;;7.00;99.90;;;;;;5100730;28;20383;-86
2021/12/19 09:08:43;;;;;;;4.83;2.17;;;7.10;99.90;;;;;;5075662;28;20944;-89
2021/12/19 09:11:09;;;;;;;6.03;2.30;;;7.10;99.90;;;;;;5074180;28;20384;-89
2021/12/19 09:13:35;;;;;;;5.00;2.00;;;7.10;99.90;;;;;;5075091;28;20390;-88
2021/12/19 09:16:01;;;;;;;3.50;2.07;;;7.10;99.90;;;;;;5073410;28;20488;-88
2021/12/19 09:18:28;;;;;;;4.65;2.40;;;7.20;99.90;;;;;;5074818;28;20435;-87
2021/12/19 09:20:55;;;;;;;4.80;2.88;;;7.20;99.90;;;;;;5070887;28;20460;-89
2021/12/19 09:23:21;;;;;;;4.27;2.40;;;7.20;99.90;;;;;;5072770;28;20384;-88
2021/12/19 09:25:47;;;;;;;7.07;3.25;;;7.10;99.90;;;;;;5064828;28;20389;-91
2021/12/19 09:28:14;;;;;;;6.25;3.28;;;7.10;99.90;;;;;;5056845;28;20450;-86
2021/12/19 09:30:41;;;;;;;5.03;3.28;;;7.00;99.90;;;;;;5071304;28;20396;-90
2021/12/19 09:33:13;;;;;;;6.07;3.40;;;7.10;99.90;;;;;;5089665;28;20433;-88
2021/12/19 09:35:39;;;;;;;4.68;2.90;;;7.10;99.90;;;;;;5071438;28;20395;-88
2021/12/19 09:38:07;;;;;;;5.63;2.85;;;7.20;99.90;;;;;;5071359;28;20403;-87
2021/12/19 09:40:39;;;;;;;5.35;2.28;;;7.20;99.90;;;;;;5071940;28;20443;-89
2021/12/19 09:43:21;;;;;;;5.65;2.30;;;7.20;99.90;;;;;;5071867;28;20380;-86
2021/12/19 09:45:58;;;;;;;5.43;2.40;;;7.10;99.90;;;;;;5071564;28;20385;-88
2021/12/19 09:48:25;;;;;;;4.35;2.55;;;7.10;99.90;;;;;;5072207;28;20380;-87
2021/12/19 09:50:51;;;;;;;6.73;2.60;;;7.10;99.90;;;;;;5072208;28;20388;-89
2021/12/19 09:53:20;;;;;;;6.03;2.80;;;7.10;99.90;;;;;;5072003;28;20927;-88
2021/12/19 09:55:47;;;;;;;4.25;2.45;;;7.20;99.90;;;;;;5089319;28;20445;-87
2021/12/19 09:58:16;;;;;;;6.72;2.80;;;7.20;99.90;;;;;;5070506;28;20384;-88
2021/12/19 10:00:44;;;;;;;7.43;2.67;;;7.20;99.90;;;;;;5071324;28;20380;-86
2021/12/19 10:03:16;;;;;;;6.22;2.40;;;7.20;99.90;;;;;;5070304;28;20404;-89
2021/12/19 10:05:43;;;;;;;7.18;3.08;;;7.20;99.90;;;;;;5071537;28;20380;-88
2021/12/19 10:08:10;;;;;;;6.18;2.95;;;7.30;99.90;;;;;;5071340;28;20380;-89
2021/12/19 10:11:00;;;;;;;7.90;3.35;;;7.30;99.90;;;;;;5071392;28;20400;-87
2021/12/19 10:13:36;;;;;;;9.63;3.10;;;7.20;99.90;;;;;;5071187;28;20401;-86
2021/12/19 10:16:26;;;;;;;12.57;3.20;;;7.20;99.90;;;;;;5069071;28;20441;-89
2021/12/19 10:18:57;;;;;;;7.50;2.90;;;7.20;99.90;;;;;;5070896;28;21415;-90
2021/12/19 10:21:23;;;;;;;5.72;2.65;;;7.20;99.90;;;;;;5069108;28;20407;-88
2021/12/19 10:23:51;;;;;;;6.75;2.70;;;7.20;99.90;;;;;;5069571;28;20373;-91
2021/12/19 10:26:18;;;;;;;9.77;3.05;;;7.20;99.90;;;;;;5069823;28;20400;-92
2021/12/19 10:28:54;;;;;;;11.23;3.42;;;7.20;99.90;;;;;;5087266;28;20400;-90
2021/12/19 10:31:32;;;;;;;8.48;2.92;;;7.20;99.90;;;;;;5085972;28;20388;-88
2021/12/19 10:34:16;;;;;;;9.45;3.20;;;7.30;99.90;;;;;;5070970;28;20430;-90
2021/12/19 10:36:42;;;;;;;10.75;3.60;;;7.40;99.90;;;;;;5072232;28;20400;-88
2021/12/19 10:39:14;;;;;;;10.77;3.13;;;7.30;99.90;;;;;;5073401;28;20750;-88
2021/12/19 10:41:42;;;;;;;8.83;2.97;;;7.20;99.90;;;;;;5073546;28;20978;-89
2021/12/19 10:45:29;;;;;;;9.75;2.72;;;7.30;99.90;;;;;;5073478;28;20758;-86
2021/12/19 10:46:54;;;;;;;9.18;2.90;;;7.30;99.90;;;;;;5082645;28;20392;-88
2021/12/19 10:49:30;;;;;;;9.52;2.83;;;7.30;99.90;;;;;;5087966;28;20436;-89
2021/12/19 10:52:01;;;;;;;10.90;3.08;;;7.20;99.90;;;;;;5073517;28;20514;-89
2021/12/19 10:54:27;;;;;;;11.27;3.25;;;7.40;99.90;;;;;;5077160;28;20886;-90
2021/12/19 10:57:07;;;;;;;9.77;2.65;;;7.30;99.90;;;;;;5076704;28;20374;-89
2021/12/19 10:59:34;;;;;;;11.13;3.50;;;7.30;99.90;;;;;;5067492;28;20388;-90
2021/12/19 11:02:00;;;;;;;9.73;3.22;;;7.30;99.90;;;;;;5072625;28;20476;-87
2021/12/19 11:04:26;;;;;;;11.55;3.10;;;7.40;99.90;;;;;;5072490;28;20495;-90
2021/12/19 11:06:59;;;;;;;10.23;3.17;;;7.40;99.90;;;;;;5072458;28;20380;-89
2021/12/19 11:09:28;;;;;;;10.93;3.25;;;7.30;99.90;;;;;;5078549;28;20406;-88
2021/12/19 11:12:02;;;;;;;11.77;2.92;;;7.30;99.90;;;;;;5072010;28;20425;-90
2021/12/19 11:14:43;;;;;;;10.32;3.50;;;7.30;99.90;;;;;;5062779;28;20422;-91
2021/12/19 11:17:15;;;;;;;12.10;3.42;;;7.30;99.90;;;;;;5091729;28;20439;-89
2021/12/19 11:19:42;;;;;;;10.63;2.97;;;7.40;99.90;;;;;;5072655;28;20430;-87
2021/12/19 11:22:09;;;;;;;10.00;2.90;;;7.40;99.90;;;;;;5090114;28;20920;-92
2021/12/19 11:24:35;;;;;;;9.75;2.95;;;7.50;99.90;;;;;;5072742;28;20380;-89
2021/12/19 11:27:03;;;;;;;8.98;3.10;;;7.40;99.90;;;;;;5054577;28;20455;-91
2021/12/19 11:29:29;;;;;;;9.60;3.13;;;7.50;99.90;;;;;;5053944;28;20399;-89
2021/12/19 11:31:59;;;;;;;8.07;2.80;;;7.60;99.90;;;;;;5058483;28;20384;-90
2021/12/19 11:34:45;;;;;;;11.60;3.05;;;7.50;99.90;;;;;;5086415;28;20418;-87
2021/12/19 11:37:18;;;;;;;9.02;2.67;;;7.50;99.90;;;;;;5053337;28;21869;-88
2021/12/19 11:39:56;;;;;;;10.63;3.13;;;7.60;99.90;;;;;;5071638;28;20389;-88
2021/12/19 11:42:30;;;;;;;11.75;3.78;;;7.50;99.90;;;;;;5073974;28;20400;-89
2021/12/19 11:48:06;;;;;;;11.80;5.10;;;7.40;99.90;;;;;;5091202;28;20376;-89
2021/12/19 11:50:45;;;;;;;12.43;4.47;;;7.50;99.90;;;;;;5054746;28;20394;-90
2021/12/19 11:53:11;;;;;;;12.35;4.70;;;7.50;99.90;;;;;;5070316;28;20909;-89
2021/12/19 11:56:10;;;;;;;12.17;4.03;;;7.60;99.90;;;;;;5091120;28;20372;-92
2021/12/19 11:58:45;;;;;;;12.30;5.10;;;7.50;99.90;;;;;;5065870;28;20736;-89
2021/12/19 12:01:28;;;;;;;12.73;4.30;;;7.50;99.90;;;;;;5071106;28;20438;-88
2021/12/19 12:04:26;;;;;;;12.00;3.10;;;7.50;99.90;;;;;;5069703;28;20436;-89
2021/12/19 12:06:58;;;;;;;6.82;2.60;;;7.40;99.90;;;;;;5066225;28;20400;-89
2021/12/19 12:09:38;;;;;;;9.70;2.83;;;7.50;99.90;;;;;;5066825;28;20408;-87
2021/12/19 12:12:09;;;;;;;10.32;2.95;;;7.60;99.90;;;;;;5068642;28;20384;-91
2021/12/19 12:15:05;;;;;;;9.52;2.38;;;7.60;99.90;;;;;;5070261;28;20451;-88
2021/12/19 12:17:37;;;;;;;8.93;2.90;;;7.60;99.90;;;;;;5069825;28;20392;-88
2021/12/19 12:20:21;;;;;;;6.95;2.63;;;7.60;99.90;;;;;;5067376;28;20812;-91
2021/12/19 12:22:53;;;;;;;12.35;3.17;;;7.60;99.90;;;;;;5068941;28;20396;-92
2021/12/19 12:25:31;;;;;;;7.72;2.58;;;7.70;99.90;;;;;;5066613;28;20397;-88
2021/12/19 12:28:06;;;;;;;7.72;2.65;;;7.70;99.90;;;;;;5088549;28;20384;-86
2021/12/19 12:30:37;;;;;;;8.65;3.10;;;7.60;99.90;;;;;;5070810;28;20412;-89
2021/12/19 12:33:05;;;;;;;8.50;2.58;;;7.60;99.90;;;;;;5071128;28;20858;-90
2021/12/19 12:35:34;;;;;;;6.93;2.50;;;7.60;99.90;;;;;;5069473;28;20492;-89
2021/12/19 12:38:01;;;;;;;9.20;2.40;;;7.60;99.90;;;;;;5067527;28;21932;-92
2021/12/19 12:40:45;;;;;;;8.90;2.55;;;7.60;99.90;;;;;;5070200;28;20449;-92
2021/12/19 12:43:19;;;;;;;10.68;2.50;;;7.60;99.90;;;;;;5086736;28;20389;-89
2021/12/19 12:45:54;;;;;;;7.18;2.33;;;7.70;99.90;;;;;;5069542;28;20395;-88
2021/12/19 12:48:40;;;;;;;9.63;2.50;;;7.70;99.90;;;;;;5066972;28;20437;-89
2021/12/19 12:51:11;;;;;;;8.57;2.63;;;7.70;99.90;;;;;;5067994;28;20384;-88
2021/12/19 12:53:44;;;;;;;8.88;2.50;;;7.70;99.90;;;;;;5067484;28;20396;-89
2021/12/19 12:56:15;;;;;;;8.63;2.33;;;7.60;99.90;;;;;;5069543;28;20384;-90
2021/12/19 12:58:48;;;;;;;8.35;2.30;;;7.70;99.90;;;;;;5069406;28;20392;-90
2021/12/19 13:01:18;;;;;;;9.07;2.72;;;7.70;99.90;;;;;;5071170;28;20870;-88
2021/12/19 13:04:13;;;;;;;7.65;2.20;;;7.70;99.90;;;;;;5067940;28;20889;-91
2021/12/19 13:06:49;;;;;;;8.68;2.58;;;7.70;99.90;;;;;;5067319;28;20471;-91
2021/12/19 13:09:27;;;;;;;6.57;2.40;;;7.60;99.90;;;;;;5069433;28;20400;-93
2021/12/19 13:12:01;;;;;;;6.65;2.22;;;7.60;99.90;;;;;;5071143;28;20384;-87
2021/12/19 13:14:31;;;;;;;8.82;2.45;;;7.60;99.90;;;;;;5058691;28;20874;-88
2021/12/19 13:17:03;;;;;;;8.25;2.75;;;7.60;99.90;;;;;;5068530;28;20928;-87
2021/12/19 13:19:43;;;;;;;7.90;2.80;;;7.60;99.90;;;;;;5069649;28;20846;-92
2021/12/19 13:22:20;;;;;;;6.63;2.22;;;7.60;99.90;;;;;;5071604;28;20791;-90
2021/12/19 13:24:47;;;;;;;7.78;2.67;;;7.50;99.90;;;;;;5064033;28;20957;-90
2021/12/19 13:27:15;;;;;;;8.30;2.55;;;7.60;99.90;;;;;;5067231;28;20404;-86
2021/12/19 13:29:42;;;;;;;8.90;2.60;;;7.60;99.90;;;;;;5076108;28;20404;-90
2021/12/19 13:32:30;;;;;;;7.90;2.77;;;7.60;99.90;;;;;;5097013;28;20420;-88
2021/12/19 13:34:57;;;;;;;9.65;2.80;;;7.60;99.90;;;;;;5074093;28;20392;-89
2021/12/19 13:37:23;;;;;;;10.40;3.00;;;7.50;99.90;;;;;;5068884;28;20396;-88
2021/12/19 13:40:08;;;;;;;9.93;3.20;;;7.60;99.90;;;;;;5084756;28;20407;-87
2021/12/19 13:42:50;;;;;;;10.13;3.30;;;7.60;99.90;;;;;;5062206;28;20388;-89
2021/12/19 13:45:38;;;;;;;8.18;2.85;;;7.60;99.90;;;;;;5065038;28;20380;-87
2021/12/19 13:48:08;;;;;;;9.60;3.03;;;7.60;99.90;;;;;;5073663;28;20384;-91
2021/12/19 13:50:40;;;;;;;9.18;3.05;;;7.60;99.90;;;;;;5069650;28;20402;-89
2021/12/19 13:53:06;;;;;;;10.53;3.83;;;7.60;99.90;;;;;;5067126;28;20381;-88
2021/12/19 13:55:46;;;;;;;9.43;3.20;;;7.60;99.90;;;;;;5072871;28;20419;-86
2021/12/19 13:58:12;;;;;;;11.67;3.30;;;7.60;99.90;;;;;;5072877;28;20369;-88
2021/12/19 14:00:49;;;;;;;13.97;4.13;;;7.60;99.90;;;;;;5072904;28;20914;-87
2021/12/19 14:03:15;;;;;;;9.30;3.05;;;7.50;99.90;;;;;;5095347;28;20380;-88
2021/12/19 14:05:57;;;;;;;10.45;3.55;;;7.60;99.90;;;;;;5072725;28;20486;-88